createdAt,value
2019-02-21T00:00:26.103Z,23.83
2019-02-21T00:02:58.079Z,21.48
2019-02-21T00:05:28.429Z,23.45
2019-02-21T00:07:59.365Z,22.17
2019-02-21T00:10:29.861Z,22.67
2019-02-21T00:13:03.942Z,21.68
2019-02-21T00:15:34.319Z,26.10
2019-02-21T00:18:16.556Z,18.10
2019-02-21T00:20:47.530Z,23.60
2019-02-21T00:23:17.900Z,20.95
2019-02-21T00:25:49.322Z,20.32
2019-02-21T00:28:19.695Z,20.75
2019-02-21T00:30:50.065Z,19.67
2019-02-21T00:33:20.430Z,20.90
2019-02-21T00:35:51.003Z,20.48
2019-02-21T00:38:21.385Z,22.02
2019-02-21T00:40:51.743Z,21.87
2019-02-21T00:43:22.081Z,20.68
2019-02-21T00:45:52.444Z,20.75
2019-02-21T00:48:22.966Z,18.98
2019-02-21T00:50:53.393Z,18.82
2019-02-21T00:53:23.760Z,19.65
2019-02-21T00:55:54.104Z,18.80
2019-02-21T00:58:24.466Z,22.35
2019-02-21T01:00:54.820Z,23.18
2019-02-21T01:03:25.149Z,19.70
2019-02-21T01:05:55.519Z,25.50
2019-02-21T01:08:25.880Z,20.43
2019-02-21T01:10:56.226Z,20.10
2019-02-21T01:13:26.579Z,19.32
2019-02-21T01:15:56.932Z,19.87
2019-02-21T01:18:27.278Z,24.18
2019-02-21T01:20:57.622Z,20.92
2019-02-21T01:23:48.817Z,18.80
2019-02-21T01:26:19.163Z,23.38
2019-02-21T01:28:49.523Z,19.48
2019-02-21T01:31:19.950Z,26.57
2019-02-21T01:33:50.334Z,23.35
2019-02-21T01:36:20.670Z,22.90
2019-02-21T01:38:51.051Z,25.05
2019-02-21T01:41:21.402Z,21.80
2019-02-21T01:43:51.843Z,19.90
2019-02-21T01:46:22.197Z,21.57
2019-02-21T01:48:52.556Z,20.17
2019-02-21T01:51:23.039Z,21.82
2019-02-21T01:53:53.412Z,23.60
2019-02-21T01:56:23.766Z,20.60
2019-02-21T01:58:54.121Z,24.02
2019-02-21T02:01:24.485Z,22.90
2019-02-21T02:03:54.918Z,23.62
2019-02-21T02:06:25.336Z,22.70
2019-02-21T02:08:55.737Z,22.67
2019-02-21T02:11:26.080Z,24.07
2019-02-21T02:13:56.505Z,22.98
2019-02-21T02:16:28.542Z,24.70
2019-02-21T02:18:58.784Z,23.20
2019-02-21T02:21:29.150Z,22.32
2019-02-21T02:23:59.486Z,23.35
2019-02-21T02:26:29.837Z,20.45
2019-02-21T02:29:02.135Z,25.65
2019-02-21T02:31:32.481Z,23.70
2019-02-21T02:34:03.830Z,23.83
2019-02-21T02:36:34.180Z,22.27
2019-02-21T02:39:05.170Z,27.02
2019-02-21T02:41:56.583Z,26.52
2019-02-21T02:44:26.947Z,25.97
2019-02-21T02:46:57.344Z,26.07
2019-02-21T02:49:27.692Z,29.02
2019-02-21T02:51:58.039Z,24.87
2019-02-21T02:54:28.404Z,26.97
2019-02-21T02:56:58.773Z,34.08
2019-02-21T02:59:40.418Z,29.37
2019-02-21T03:02:01.515Z,28.32
2019-02-21T03:04:31.944Z,28.05
2019-02-21T03:07:02.304Z,24.32
2019-02-21T03:09:33.636Z,29.60
2019-02-21T03:12:04.012Z,29.23
2019-02-21T03:14:34.352Z,27.85
2019-02-21T03:17:04.723Z,29.05
2019-02-21T03:19:35.057Z,27.13
2019-02-21T03:22:05.417Z,31.05
2019-02-21T03:24:35.748Z,29.32
2019-02-21T03:27:06.123Z,32.98
2019-02-21T03:29:36.461Z,31.42
2019-02-21T03:32:06.830Z,31.05
2019-02-21T03:34:56.518Z,29.30
2019-02-21T03:37:26.896Z,30.30
2019-02-21T03:39:57.240Z,30.05
2019-02-21T03:42:27.599Z,36.50
2019-02-21T03:44:57.949Z,29.63
2019-02-21T03:47:28.334Z,29.27
2019-02-21T03:49:58.669Z,29.20
2019-02-21T03:52:29.030Z,30.55
2019-02-21T03:54:59.383Z,31.97
2019-02-21T03:57:29.730Z,31.50
2019-02-21T04:00:00.383Z,33.05
2019-02-21T04:02:30.767Z,29.30
2019-02-21T04:05:01.206Z,29.27
2019-02-21T04:07:32.522Z,32.80
2019-02-21T04:10:03.243Z,29.98
2019-02-21T04:12:33.607Z,30.43
2019-02-21T04:15:05.968Z,30.82
2019-02-21T04:17:36.341Z,34.53
2019-02-21T04:20:09.051Z,30.05
2019-02-21T04:22:39.423Z,33.10
2019-02-21T04:25:09.856Z,31.23
2019-02-21T04:27:40.216Z,29.05
2019-02-21T04:30:10.575Z,33.23
2019-02-21T04:32:40.946Z,36.55
2019-02-21T04:35:11.305Z,29.27
2019-02-21T04:37:41.690Z,33.05
2019-02-21T04:40:12.039Z,29.67
2019-02-21T04:42:42.405Z,32.13
2019-02-21T04:45:12.761Z,31.57
2019-02-21T04:47:43.116Z,31.52
2019-02-21T04:50:14.877Z,32.05
2019-02-21T04:52:45.232Z,30.45
2019-02-21T04:55:15.606Z,31.70
2019-02-21T04:57:45.960Z,32.17
2019-02-21T05:00:16.367Z,33.48
2019-02-21T05:02:46.723Z,31.68
2019-02-21T05:05:17.068Z,31.27
2019-02-21T05:07:47.455Z,31.60
2019-02-21T05:10:17.766Z,31.15
2019-02-21T05:12:48.139Z,32.20
2019-02-21T05:15:18.489Z,32.78
2019-02-21T05:17:48.863Z,29.85
2019-02-21T05:20:19.206Z,32.48
2019-02-21T05:22:49.569Z,35.80
2019-02-21T05:25:19.916Z,30.12
2019-02-21T05:27:51.864Z,34.45
2019-02-21T05:30:23.876Z,35.28
2019-02-21T05:32:58.803Z,29.20
2019-02-21T05:35:31.423Z,33.88
2019-02-21T05:38:16.755Z,33.60
2019-02-21T05:44:03.511Z,30.97
2019-02-21T05:46:48.568Z,31.77
2019-02-21T05:49:36.007Z,30.27
2019-02-21T05:52:22.826Z,31.12
2019-02-21T05:55:06.711Z,36.40
2019-02-21T05:57:38.705Z,37.93
2019-02-21T06:00:11.900Z,33.88
2019-02-21T06:02:53.786Z,33.88
2019-02-21T06:05:50.859Z,34.58
2019-02-21T06:08:31.835Z,40.05
2019-02-21T06:11:19.910Z,33.28
2019-02-21T06:13:51.919Z,37.67
2019-02-21T06:16:24.024Z,36.42
2019-02-21T06:18:56.042Z,39.70
2019-02-21T06:21:30.751Z,36.83
2019-02-21T06:24:02.753Z,35.88
2019-02-21T06:26:34.734Z,36.75
2019-02-21T06:29:09.966Z,35.85
2019-02-21T06:31:40.507Z,39.65
2019-02-21T06:34:10.878Z,32.48
2019-02-21T06:36:41.205Z,36.70
2019-02-21T06:39:11.542Z,36.08
2019-02-21T06:41:42.775Z,42.10
2019-02-21T06:44:13.474Z,35.35
2019-02-21T06:46:43.831Z,41.20
2019-02-21T06:49:14.169Z,36.08
2019-02-21T06:51:44.512Z,34.83
2019-02-21T06:54:14.855Z,38.35
2019-02-21T06:56:45.197Z,35.43
2019-02-21T06:59:15.553Z,31.42
2019-02-21T07:01:45.879Z,35.80
2019-02-21T07:04:17.292Z,38.65
2019-02-21T07:06:47.630Z,38.23
2019-02-21T07:09:17.972Z,36.42
2019-02-21T07:11:48.306Z,41.25
2019-02-21T07:14:18.668Z,39.60
2019-02-21T07:16:49.143Z,38.40
2019-02-21T07:19:19.487Z,38.53
2019-02-21T07:21:49.830Z,35.85
2019-02-21T07:24:20.170Z,37.60
2019-02-21T07:26:50.512Z,39.45
2019-02-21T07:29:20.860Z,42.55
2019-02-21T07:31:51.198Z,35.78
2019-02-21T07:34:21.537Z,34.38
2019-02-21T07:36:51.871Z,39.40
2019-02-21T07:39:22.225Z,35.70
2019-02-21T07:41:52.577Z,36.93
2019-02-21T07:44:22.931Z,40.85
2019-02-21T07:46:53.555Z,38.35
2019-02-21T07:49:25.688Z,37.90
2019-02-21T07:51:55.941Z,33.92
2019-02-21T07:54:26.285Z,36.65
2019-02-21T07:56:56.619Z,34.50
2019-02-21T07:59:27.335Z,39.50
2019-02-21T08:01:57.672Z,36.08
2019-02-21T08:04:28.018Z,38.40
2019-02-21T08:06:58.452Z,35.30
2019-02-21T08:09:29.644Z,36.63
2019-02-21T08:12:02.769Z,35.43
2019-02-21T08:14:33.944Z,33.75
2019-02-21T08:17:04.297Z,38.08
2019-02-21T08:19:34.661Z,36.88
2019-02-21T08:22:05.045Z,36.40
2019-02-21T08:24:35.410Z,36.13
2019-02-21T08:27:05.774Z,37.88
2019-02-21T08:29:36.140Z,35.10
2019-02-21T08:32:06.589Z,32.60
2019-02-21T08:34:38.583Z,33.95
2019-02-21T08:37:08.968Z,32.08
2019-02-21T08:39:39.336Z,35.10
2019-02-21T08:42:09.702Z,36.15
2019-02-21T08:44:40.150Z,36.68
2019-02-21T08:47:10.502Z,33.63
2019-02-21T08:49:40.897Z,34.83
2019-02-21T08:52:11.265Z,33.78
2019-02-21T08:54:41.615Z,33.98
2019-02-21T08:57:11.986Z,34.30
2019-02-21T08:59:42.650Z,36.55
2019-02-21T09:02:13.013Z,29.20
2019-02-21T09:04:43.448Z,34.83
2019-02-21T09:07:13.827Z,32.48
2019-02-21T09:09:44.238Z,31.77
2019-02-21T09:12:14.619Z,29.35
2019-02-21T09:14:45.065Z,33.13
2019-02-21T09:17:15.407Z,35.68
2019-02-21T09:19:45.784Z,33.80
2019-02-21T09:22:16.121Z,33.10
2019-02-21T09:24:46.501Z,33.28
2019-02-21T09:27:16.864Z,33.20
2019-02-21T09:29:47.267Z,35.17
2019-02-21T09:32:17.668Z,29.72
2019-02-21T09:34:50.300Z,30.60
2019-02-21T09:37:20.150Z,31.87
2019-02-21T09:39:50.539Z,35.43
2019-02-21T09:42:20.900Z,36.05
2019-02-21T09:44:51.369Z,31.68
2019-02-21T09:47:22.793Z,36.05
2019-02-21T09:49:53.184Z,34.65
2019-02-21T09:52:23.561Z,31.80
2019-02-21T09:54:53.912Z,31.75
2019-02-21T09:57:24.270Z,29.77
2019-02-21T09:59:54.659Z,29.75
2019-02-21T10:02:25.032Z,30.15
2019-02-21T10:05:04.495Z,31.00
2019-02-21T10:07:27.449Z,34.40
2019-02-21T10:09:57.835Z,30.08
2019-02-21T10:12:28.191Z,34.15
2019-02-21T10:14:58.561Z,36.93
2019-02-21T10:17:28.932Z,35.83
2019-02-21T10:20:04.036Z,33.92
2019-02-21T10:22:31.374Z,36.17
2019-02-21T10:25:01.744Z,36.05
2019-02-21T10:27:32.100Z,32.35
2019-02-21T10:30:02.486Z,34.08
2019-02-21T10:32:34.289Z,38.20
2019-02-21T10:35:06.259Z,36.05
2019-02-21T10:37:36.638Z,34.18
2019-02-21T10:40:10.681Z,32.93
2019-02-21T10:42:41.073Z,32.15
2019-02-21T10:45:14.828Z,36.35
2019-02-21T10:47:45.178Z,35.68
2019-02-21T10:50:18.459Z,34.43
2019-02-21T10:52:50.100Z,32.35
2019-02-21T10:55:20.602Z,32.53
2019-02-21T10:57:51.044Z,36.55
2019-02-21T11:00:30.321Z,34.48
2019-02-21T11:03:00.860Z,36.50
2019-02-21T11:05:31.219Z,35.48
2019-02-21T11:08:01.601Z,38.50
2019-02-21T11:10:32.371Z,37.10
2019-02-21T11:13:02.798Z,31.17
2019-02-21T11:15:33.149Z,37.73
2019-02-21T11:18:03.496Z,39.48
2019-02-21T11:20:33.870Z,33.42
2019-02-21T11:23:06.475Z,38.90
2019-02-21T11:25:36.313Z,39.30
2019-02-21T11:28:06.655Z,35.48
2019-02-21T11:30:37.081Z,37.10
2019-02-21T11:33:07.508Z,32.78
2019-02-21T11:35:37.858Z,36.25
2019-02-21T11:38:08.220Z,33.53
2019-02-21T11:40:38.656Z,36.40
2019-02-21T11:43:09.112Z,35.95
2019-02-21T11:45:39.425Z,37.20
2019-02-21T11:48:10.154Z,35.88
2019-02-21T11:50:40.504Z,35.98
2019-02-21T11:53:10.851Z,38.10
2019-02-21T11:55:41.215Z,34.43
2019-02-21T11:58:11.587Z,34.73
2019-02-21T12:00:41.941Z,32.45
2019-02-21T12:03:12.304Z,31.80
2019-02-21T12:05:42.661Z,32.05
2019-02-21T12:08:13.028Z,32.67
2019-02-21T12:10:43.388Z,27.42
2019-02-21T12:13:13.761Z,30.30
2019-02-21T12:15:44.100Z,31.50
2019-02-21T12:18:14.477Z,28.70
2019-02-21T12:20:44.822Z,30.70
2019-02-21T12:23:17.683Z,28.12
2019-02-21T12:25:47.246Z,28.12
2019-02-21T12:28:17.599Z,29.45
2019-02-21T12:30:47.977Z,26.42
2019-02-21T12:33:18.341Z,25.52
2019-02-21T12:35:48.709Z,28.65
2019-02-21T12:38:19.094Z,27.55
2019-02-21T12:40:49.454Z,26.25
2019-02-21T12:43:19.833Z,33.83
2019-02-21T12:45:52.640Z,28.42
2019-02-21T12:48:22.310Z,26.52
2019-02-21T12:50:52.846Z,32.38
2019-02-21T12:53:23.252Z,29.15
2019-02-21T12:55:53.623Z,33.40
2019-02-21T12:58:23.981Z,30.00
2019-02-21T13:00:54.349Z,34.83
2019-02-21T13:03:24.708Z,29.27
2019-02-21T13:05:55.080Z,27.05
2019-02-21T13:08:28.346Z,34.53
2019-02-21T13:10:58.705Z,32.55
2019-02-21T13:13:29.089Z,30.02
2019-02-21T13:15:59.436Z,32.93
2019-02-21T13:18:29.797Z,29.10
2019-02-21T13:21:00.137Z,29.45
2019-02-21T13:23:30.487Z,32.28
2019-02-21T13:26:00.835Z,29.48
2019-02-21T13:28:31.195Z,32.00
2019-02-21T13:31:01.541Z,27.60
2019-02-21T13:33:31.896Z,31.20
2019-02-21T13:36:02.252Z,28.95
2019-02-21T13:38:32.596Z,30.75
2019-02-21T13:41:02.951Z,24.55
2019-02-21T13:43:33.367Z,26.73
2019-02-21T13:46:04.815Z,26.40
2019-02-21T13:48:36.102Z,23.57
2019-02-21T13:51:06.445Z,22.62
2019-02-21T13:53:36.792Z,20.40
2019-02-21T13:56:07.149Z,24.00
2019-02-21T13:58:37.518Z,22.13
2019-02-21T14:01:07.843Z,25.40
2019-02-21T14:03:38.195Z,23.25
2019-02-21T14:06:08.539Z,23.00
2019-02-21T14:08:38.900Z,26.57
2019-02-21T14:11:09.249Z,24.32
2019-02-21T14:13:40.347Z,25.77
2019-02-21T14:16:10.708Z,21.52
2019-02-21T14:18:41.161Z,22.80
2019-02-21T14:21:11.506Z,21.95
2019-02-21T14:23:41.880Z,19.85
2019-02-21T14:26:12.255Z,23.12
2019-02-21T14:28:42.635Z,23.52
2019-02-21T14:31:12.995Z,20.90
2019-02-21T14:33:43.364Z,23.12
2019-02-21T14:36:16.813Z,23.00
2019-02-21T14:38:45.787Z,29.92
2019-02-21T14:41:16.142Z,24.20
2019-02-21T14:43:46.572Z,20.70
2019-02-21T14:46:16.913Z,28.35
2019-02-21T14:48:47.269Z,24.02
2019-02-21T14:51:17.628Z,21.23
2019-02-21T14:53:47.983Z,26.75
2019-02-21T14:56:20.089Z,24.87
2019-02-21T14:58:50.568Z,25.35
2019-02-21T15:01:20.916Z,24.72
2019-02-21T15:03:51.268Z,24.32
2019-02-21T15:06:27.160Z,26.35
2019-02-21T15:08:53.930Z,26.23
2019-02-21T15:11:24.279Z,27.52
2019-02-21T15:13:54.632Z,31.68
2019-02-21T15:16:24.979Z,28.83
2019-02-21T15:18:55.498Z,31.57
2019-02-21T15:21:25.865Z,29.70
2019-02-21T15:23:56.227Z,30.95
2019-02-21T15:26:26.599Z,31.12
2019-02-21T15:28:56.979Z,29.98
2019-02-21T15:31:27.315Z,30.15
2019-02-21T15:33:57.675Z,25.85
2019-02-21T15:36:37.851Z,23.38
2019-02-21T15:39:00.217Z,33.18
2019-02-21T15:41:30.647Z,27.82
2019-02-21T15:44:01.012Z,28.73
2019-02-21T15:46:31.336Z,28.07
2019-02-21T15:49:01.733Z,28.27
2019-02-21T15:51:33.585Z,26.87
2019-02-21T15:54:05.497Z,27.15
2019-02-21T15:56:35.865Z,23.35
2019-02-21T15:59:07.889Z,26.23
2019-02-21T16:01:47.081Z,24.70
2019-02-21T16:04:10.321Z,19.52
2019-02-21T16:06:50.961Z,24.05
2019-02-21T16:09:16.310Z,23.25
2019-02-21T16:11:44.815Z,22.48
2019-02-21T16:14:15.247Z,20.12
2019-02-21T16:16:45.599Z,22.98
2019-02-21T16:19:16.096Z,22.90
2019-02-21T16:21:46.449Z,21.75
2019-02-21T16:24:16.849Z,22.90
2019-02-21T16:26:47.196Z,21.70
2019-02-21T16:29:17.567Z,22.02
2019-02-21T16:31:47.927Z,21.60
2019-02-21T16:34:18.322Z,21.17
2019-02-21T16:36:48.672Z,21.73
2019-02-21T16:39:19.052Z,23.90
2019-02-21T16:41:49.463Z,24.20
2019-02-21T16:44:19.769Z,24.60
2019-02-21T16:46:50.116Z,23.32
2019-02-21T16:49:20.470Z,22.93
2019-02-21T16:51:50.839Z,26.25
2019-02-21T16:54:21.196Z,24.72
2019-02-21T16:56:51.583Z,23.02
2019-02-21T16:59:21.924Z,22.40
2019-02-21T17:01:52.362Z,27.95
2019-02-21T17:04:28.236Z,25.95
2019-02-21T17:06:58.596Z,24.80
2019-02-21T17:09:28.954Z,28.12
2019-02-21T17:12:01.063Z,27.58
2019-02-21T17:14:31.348Z,26.17
2019-02-21T17:17:01.691Z,23.80
2019-02-21T17:19:34.967Z,26.52
2019-02-21T17:22:05.313Z,27.32
2019-02-21T17:24:35.666Z,23.65
2019-02-21T17:27:06.007Z,28.52
2019-02-21T17:29:36.379Z,26.37
2019-02-21T17:32:06.745Z,28.40
2019-02-21T17:34:37.172Z,26.17
2019-02-21T17:37:07.534Z,27.98
2019-02-21T17:39:38.105Z,29.15
2019-02-21T17:42:08.456Z,26.80
2019-02-21T17:44:38.807Z,26.82
2019-02-21T17:47:09.154Z,27.58
2019-02-21T17:49:39.495Z,29.27
2019-02-21T17:52:09.859Z,29.48
2019-02-21T17:54:44.074Z,29.72
2019-02-21T17:57:14.423Z,32.13
2019-02-21T17:59:44.798Z,31.40
2019-02-21T18:02:15.159Z,29.65
2019-02-21T18:04:45.508Z,33.63
2019-02-21T18:07:15.851Z,36.65
2019-02-21T18:09:46.449Z,35.78
2019-02-21T18:12:16.803Z,36.30
2019-02-21T18:14:47.141Z,33.05
2019-02-21T18:17:17.550Z,42.20
2019-02-21T18:19:47.914Z,35.38
2019-02-21T18:22:18.255Z,35.88
2019-02-21T18:24:48.649Z,38.90
2019-02-21T18:27:18.969Z,32.38
2019-02-21T18:29:49.337Z,42.23
2019-02-21T18:32:28.810Z,41.42
2019-02-21T18:34:59.180Z,41.58
2019-02-21T18:37:29.529Z,41.00
2019-02-21T18:39:59.916Z,45.17
2019-02-21T18:42:30.262Z,39.03
2019-02-21T18:45:00.913Z,42.85
2019-02-21T18:47:32.803Z,46.80
2019-02-21T18:50:03.149Z,47.98
2019-02-21T18:52:33.506Z,39.48
2019-02-21T18:55:04.591Z,43.35
2019-02-21T18:57:34.946Z,43.85
2019-02-21T19:00:16.390Z,46.98
2019-02-21T19:02:46.730Z,50.90
2019-02-21T19:05:17.150Z,48.28
2019-02-21T19:07:55.828Z,45.55
2019-02-21T19:10:21.308Z,49.53
2019-02-21T19:12:51.764Z,42.23
2019-02-21T19:15:41.612Z,51.73
2019-02-21T19:18:12.032Z,44.98
2019-02-21T19:20:42.380Z,46.40
2019-02-21T19:23:12.726Z,42.73
2019-02-21T19:25:43.134Z,42.90
2019-02-21T19:28:13.560Z,43.95
2019-02-21T19:31:00.545Z,45.50
2019-02-21T19:33:30.881Z,39.65
2019-02-21T19:36:02.202Z,42.45
2019-02-21T19:38:32.607Z,45.03
2019-02-21T19:41:02.953Z,46.02
2019-02-21T19:43:33.364Z,46.18
2019-02-21T19:46:03.773Z,42.95
2019-02-21T19:48:34.112Z,47.67
2019-02-21T19:51:04.460Z,42.75
2019-02-21T19:53:34.804Z,39.13
2019-02-21T19:56:05.213Z,48.48
2019-02-21T19:58:35.574Z,39.63
2019-02-21T20:01:06.264Z,41.33
2019-02-21T20:03:37.309Z,41.55
2019-02-21T20:06:20.941Z,45.00
2019-02-21T20:08:51.268Z,42.48
2019-02-21T20:11:21.620Z,48.65
2019-02-21T20:13:51.972Z,45.67
2019-02-21T20:16:22.323Z,49.00
2019-02-21T20:18:52.668Z,42.10
2019-02-21T20:21:23.095Z,43.68
2019-02-21T20:23:53.452Z,41.20
2019-02-21T20:26:23.808Z,48.42
2019-02-21T20:28:55.164Z,44.45
2019-02-21T20:31:25.729Z,38.02
2019-02-21T20:33:56.128Z,39.75
2019-02-21T20:36:27.586Z,38.63
2019-02-21T20:38:57.937Z,44.15
2019-02-21T20:41:28.286Z,42.48
2019-02-21T20:43:58.701Z,43.98
2019-02-21T20:46:29.051Z,42.85
2019-02-21T20:49:03.466Z,43.68
2019-02-21T20:51:33.905Z,36.10
2019-02-21T20:54:04.265Z,42.25
2019-02-21T20:56:34.680Z,42.62
2019-02-21T20:59:05.431Z,41.95
2019-02-21T21:01:36.057Z,40.55
2019-02-21T21:04:06.573Z,40.70
2019-02-21T21:06:38.891Z,42.30
2019-02-21T21:09:09.682Z,40.98
2019-02-21T21:11:40.100Z,45.88
2019-02-21T21:14:10.675Z,41.58
2019-02-21T21:16:41.041Z,40.58
2019-02-21T21:19:20.364Z,40.35
2019-02-21T21:21:50.725Z,38.70
2019-02-21T21:24:21.080Z,43.02
2019-02-21T21:26:51.791Z,38.80
2019-02-21T21:29:22.156Z,38.20
2019-02-21T21:31:53.563Z,41.13
2019-02-21T21:34:25.190Z,36.50
2019-02-21T21:36:55.530Z,39.70
2019-02-21T21:39:26.955Z,38.05
2019-02-21T21:41:57.310Z,35.15
2019-02-21T21:44:27.665Z,40.35
2019-02-21T21:46:58.281Z,41.53
2019-02-21T21:49:28.638Z,41.88
2019-02-21T21:51:58.987Z,39.75
2019-02-21T21:54:29.394Z,37.08
2019-02-21T21:57:01.467Z,38.67
2019-02-21T21:59:32.817Z,36.73
2019-02-21T22:02:03.175Z,36.28
2019-02-21T22:04:33.524Z,38.17
2019-02-21T22:07:03.987Z,41.92
2019-02-21T22:09:34.339Z,41.40
2019-02-21T22:12:04.768Z,33.00
2019-02-21T22:14:35.120Z,35.17
2019-02-21T22:17:05.479Z,30.62
2019-02-21T22:19:35.823Z,33.38
2019-02-21T22:22:06.191Z,37.10
2019-02-21T22:24:36.538Z,37.05
2019-02-21T22:27:06.901Z,34.45
2019-02-21T22:29:37.241Z,34.20
2019-02-21T22:32:07.607Z,33.90
2019-02-21T22:34:37.954Z,37.53
2019-02-21T22:37:08.309Z,31.20
2019-02-21T22:39:38.653Z,32.88
2019-02-21T22:42:09.014Z,30.30
2019-02-21T22:44:39.360Z,31.50
2019-02-21T22:47:09.735Z,31.93
2019-02-21T22:49:40.088Z,37.88
2019-02-21T22:52:10.443Z,35.88
2019-02-21T22:54:40.784Z,40.67
2019-02-21T22:57:11.296Z,37.03
2019-02-21T22:59:41.646Z,37.33
2019-02-21T23:02:12.252Z,40.85
2019-02-21T23:04:53.575Z,31.60
2019-02-21T23:07:31.122Z,37.08
2019-02-21T23:10:01.474Z,39.67
2019-02-21T23:12:33.438Z,37.33
2019-02-21T23:15:04.050Z,36.48
2019-02-21T23:17:34.675Z,42.90
2019-02-21T23:20:06.080Z,40.12
2019-02-21T23:22:36.382Z,35.83
2019-02-21T23:25:07.663Z,41.73
2019-02-21T23:27:38.019Z,38.20
2019-02-21T23:30:10.573Z,44.30
2019-02-21T23:32:40.933Z,41.73
2019-02-21T23:35:13.192Z,39.27
2019-02-21T23:37:43.552Z,39.27
2019-02-21T23:40:13.898Z,45.23
2019-02-21T23:42:44.262Z,35.38
2019-02-21T23:45:14.607Z,39.08
2019-02-21T23:47:49.664Z,36.28
2019-02-21T23:50:17.019Z,38.17
2019-02-21T23:52:47.378Z,38.13
2019-02-21T23:55:17.723Z,37.95
2019-02-21T23:57:48.151Z,37.93
